createdAt,value
2022-09-28T00:00:48.210Z,98544.40
2022-09-28T00:06:10.730Z,98544.60
2022-09-28T00:11:15.937Z,98542.40
2022-09-28T00:16:24.613Z,98533.20
2022-09-28T00:21:32.499Z,98529.40
2022-09-28T00:26:36.210Z,98520.60
2022-09-28T00:31:39.924Z,98515.20
2022-09-28T00:36:47.021Z,98511.20
2022-09-28T00:41:52.107Z,98508.80
2022-09-28T00:47:20.386Z,98503.00
2022-09-28T00:53:18.627Z,98498.40
2022-09-28T00:58:32.376Z,98491.00
2022-09-28T01:03:38.793Z,98492.60
2022-09-28T01:08:45.045Z,98491.00
2022-09-28T01:13:54.803Z,98482.80
2022-09-28T01:19:43.045Z,98480.20
2022-09-28T01:24:49.611Z,98480.80
2022-09-28T01:30:16.026Z,98473.60
2022-09-28T01:35:35.935Z,98469.20
2022-09-28T01:40:41.935Z,98462.60
2022-09-28T01:45:51.719Z,98466.20
2022-09-28T01:51:04.196Z,98469.80
2022-09-28T01:56:26.668Z,98465.20
2022-09-28T02:01:44.430Z,98463.00
2022-09-28T02:07:03.036Z,98460.60
2022-09-28T02:12:20.826Z,98459.20
2022-09-28T02:17:24.817Z,98464.00
2022-09-28T02:22:34.988Z,98459.00
2022-09-28T02:28:05.845Z,98468.00
2022-09-28T02:33:28.926Z,98473.40
2022-09-28T02:38:33.368Z,98468.80
2022-09-28T02:44:00.167Z,98468.00
2022-09-28T02:49:21.456Z,98478.80
2022-09-28T02:55:14.228Z,98479.80
2022-09-28T03:00:24.417Z,98473.60
2022-09-28T03:06:00.703Z,98476.40
2022-09-28T03:11:35.474Z,98480.00
2022-09-28T03:16:44.842Z,98472.60
2022-09-28T03:21:48.716Z,98475.60
2022-09-28T03:26:52.716Z,98470.00
2022-09-28T03:31:56.926Z,98467.60
2022-09-28T03:37:00.906Z,98472.60
2022-09-28T03:42:05.197Z,98472.60
2022-09-28T03:47:09.935Z,98469.00
2022-09-28T03:52:15.172Z,98469.20
2022-09-28T03:57:19.170Z,98470.40
2022-09-28T04:02:23.423Z,98463.20
2022-09-28T04:07:30.878Z,98458.60
2022-09-28T04:12:35.178Z,98455.80
2022-09-28T04:17:40.347Z,98458.80
2022-09-28T04:22:44.967Z,98456.60
2022-09-28T04:28:08.951Z,98455.80
2022-09-28T04:33:12.674Z,98450.20
2022-09-28T04:38:23.503Z,98444.80
2022-09-28T04:43:39.986Z,98447.40
2022-09-28T04:48:44.007Z,98444.20
2022-09-28T04:53:48.136Z,98443.80
2022-09-28T04:58:52.976Z,98439.40
2022-09-28T05:03:57.355Z,98440.20
2022-09-28T05:09:01.762Z,98435.00
2022-09-28T05:14:06.615Z,98428.00
2022-09-28T05:19:12.146Z,98426.80
2022-09-28T05:24:16.206Z,98432.00
2022-09-28T05:29:20.426Z,98426.20
2022-09-28T05:34:24.265Z,98423.40
2022-09-28T05:39:28.088Z,98421.80
2022-09-28T05:44:32.120Z,98416.60
2022-09-28T05:49:35.972Z,98426.20
2022-09-28T05:54:40.064Z,98426.00
2022-09-28T05:59:44.325Z,98427.40
2022-09-28T06:04:50.296Z,98422.00
2022-09-28T06:09:54.732Z,98419.80
2022-09-28T06:14:59.357Z,98420.00
2022-09-28T06:20:02.992Z,98418.80
2022-09-28T06:25:08.444Z,98418.60
2022-09-28T06:30:13.065Z,98412.00
2022-09-28T06:35:17.144Z,98414.00
2022-09-28T06:40:23.145Z,98413.20
2022-09-28T06:45:29.496Z,98410.80
2022-09-28T06:50:41.383Z,98416.60
2022-09-28T06:55:50.611Z,98414.40
2022-09-28T07:00:59.812Z,98409.60
2022-09-28T07:06:05.004Z,98414.60
2022-09-28T07:11:09.195Z,98404.80
2022-09-28T07:16:13.579Z,98405.40
2022-09-28T07:21:27.786Z,98408.40
2022-09-28T07:26:34.383Z,98408.60
2022-09-28T07:31:38.915Z,98406.60
2022-09-28T07:36:42.776Z,98411.40
2022-09-28T07:41:46.791Z,98415.40
2022-09-28T07:46:51.109Z,98421.80
2022-09-28T07:51:54.958Z,98427.60
2022-09-28T07:56:59.268Z,98419.80
2022-09-28T08:02:02.948Z,98425.40
2022-09-28T08:07:12.624Z,98424.80
2022-09-28T08:12:16.235Z,98428.80
2022-09-28T08:17:20.002Z,98438.00
2022-09-28T08:22:24.240Z,98436.40
2022-09-28T08:27:28.142Z,98434.80
2022-09-28T08:32:33.277Z,98430.00
2022-09-28T08:37:37.155Z,98432.40
2022-09-28T08:42:43.840Z,98420.00
2022-09-28T08:48:29.743Z,98420.80
2022-09-28T08:53:50.369Z,98417.60
2022-09-28T08:59:01.192Z,98428.80
2022-09-28T09:04:08.052Z,98435.20
2022-09-28T09:10:04.082Z,98435.80
2022-09-28T09:15:25.564Z,98426.00
2022-09-28T09:21:02.623Z,98434.60
2022-09-28T09:26:23.547Z,98440.40
2022-09-28T09:32:32.245Z,98455.60
2022-09-28T09:38:21.809Z,98471.00
2022-09-28T09:43:51.230Z,98470.40
2022-09-28T09:49:12.170Z,98465.60
2022-09-28T09:54:45.952Z,98463.60
2022-09-28T09:59:50.314Z,98472.40
2022-09-28T10:05:26.420Z,98463.60
2022-09-28T10:10:37.880Z,98478.60
2022-09-28T10:15:46.299Z,98482.40
2022-09-28T10:20:55.925Z,98485.80
2022-09-28T10:26:12.423Z,98481.20
2022-09-28T10:31:51.469Z,98475.00
2022-09-28T10:37:12.733Z,98485.80
2022-09-28T10:42:31.144Z,98499.20
2022-09-28T10:47:37.045Z,98501.00
2022-09-28T10:52:46.228Z,98502.00
2022-09-28T10:57:50.817Z,98484.60
2022-09-28T11:02:55.412Z,98478.00
2022-09-28T11:08:06.027Z,98485.20
2022-09-28T11:13:11.078Z,98499.20
2022-09-28T11:18:34.070Z,98520.80
2022-09-28T11:23:38.212Z,98523.20
2022-09-28T11:28:43.538Z,98526.80
2022-09-28T11:33:48.208Z,98532.20
2022-09-28T11:39:19.959Z,98528.80
2022-09-28T11:44:46.849Z,98525.60
2022-09-28T11:49:57.924Z,98520.40
2022-09-28T11:55:22.762Z,98513.40
2022-09-28T12:00:29.520Z,98514.40
2022-09-28T12:05:45.477Z,98521.80
2022-09-28T12:11:16.164Z,98518.00
2022-09-28T12:17:07.323Z,98522.00
2022-09-28T12:22:25.347Z,98527.60
2022-09-28T12:27:39.378Z,98538.60
2022-09-28T12:33:02.650Z,98540.40
2022-09-28T12:38:33.311Z,98539.60
2022-09-28T12:44:29.416Z,98540.40
2022-09-28T12:50:36.581Z,98538.00
2022-09-28T12:55:43.049Z,98540.80
2022-09-28T13:01:22.151Z,98541.00
2022-09-28T13:06:45.649Z,98536.80
2022-09-28T13:12:12.138Z,98536.80
2022-09-28T13:17:49.008Z,98546.40
2022-09-28T13:23:24.316Z,98548.80
2022-09-28T13:28:30.286Z,98548.60
2022-09-28T13:33:39.878Z,98546.00
2022-09-28T13:38:52.700Z,98545.80
2022-09-28T13:44:08.493Z,98553.60
2022-09-28T13:49:47.808Z,98552.40
2022-09-28T13:55:18.903Z,98564.20
2022-09-28T14:00:51.648Z,98558.00
2022-09-28T14:06:28.578Z,98557.80
2022-09-28T14:11:37.288Z,98551.60
2022-09-28T14:16:46.320Z,98549.00
2022-09-28T14:21:59.277Z,98562.00
2022-09-28T14:27:39.668Z,98572.20
2022-09-28T14:33:23.504Z,98574.80
2022-09-28T14:39:16.956Z,98522.60
2022-09-28T14:44:22.200Z,98541.80
2022-09-28T14:49:34.049Z,98559.20
2022-09-28T14:54:53.939Z,98601.60
2022-09-28T15:00:00.579Z,98593.60
2022-09-28T15:05:07.443Z,98602.40
2022-09-28T15:10:32.648Z,98599.60
2022-09-28T15:15:41.711Z,98589.00
2022-09-28T15:20:50.595Z,98603.60
2022-09-28T15:25:56.126Z,98616.00
2022-09-28T15:31:03.286Z,98629.40
2022-09-28T15:36:10.549Z,98606.60
2022-09-28T15:41:14.860Z,98615.20
2022-09-28T15:46:21.869Z,98608.20
2022-09-28T15:51:28.819Z,98615.60
2022-09-28T15:56:33.068Z,98621.20
2022-09-28T16:01:44.223Z,98625.40
2022-09-28T16:07:33.975Z,98634.00
2022-09-28T16:12:38.105Z,98631.40
2022-09-28T16:17:42.657Z,98627.00
2022-09-28T16:22:47.417Z,98629.40
2022-09-28T16:27:54.660Z,98624.60
2022-09-28T16:33:06.261Z,98628.40
2022-09-28T16:38:14.972Z,98630.80
2022-09-28T16:43:39.510Z,98631.20
2022-09-28T16:48:50.370Z,98632.40
2022-09-28T16:54:14.362Z,98638.20
2022-09-28T16:59:19.460Z,98633.80
2022-09-28T17:04:25.877Z,98630.80
2022-09-28T17:09:29.788Z,98627.60
2022-09-28T17:14:34.643Z,98625.80
2022-09-28T17:19:38.886Z,98627.80
2022-09-28T17:24:42.817Z,98625.20
2022-09-28T17:29:46.944Z,98620.40
2022-09-28T17:35:00.879Z,98622.40
2022-09-28T17:40:28.752Z,98624.00
2022-09-28T17:45:39.694Z,98619.80
2022-09-28T17:50:47.757Z,98613.80
2022-09-28T17:55:51.936Z,98606.40
2022-09-28T18:00:55.698Z,98609.00
2022-09-28T18:06:11.272Z,98604.80
2022-09-28T18:11:16.229Z,98608.20
2022-09-28T18:16:20.075Z,98614.00
2022-09-28T18:21:24.107Z,98615.60
2022-09-28T18:26:28.996Z,98621.60
2022-09-28T18:31:34.045Z,98615.20
2022-09-28T18:36:37.906Z,98620.20
2022-09-28T18:41:42.857Z,98610.80
2022-09-28T18:46:46.633Z,98612.20
2022-09-28T18:51:51.318Z,98608.60
2022-09-28T18:56:57.526Z,98611.40
2022-09-28T19:02:02.442Z,98612.00
2022-09-28T19:07:08.920Z,98614.40
2022-09-28T19:12:13.875Z,98612.20
2022-09-28T19:17:18.674Z,98608.80
2022-09-28T19:22:22.664Z,98609.20
2022-09-28T19:27:26.793Z,98600.00
2022-09-28T19:32:31.019Z,98602.40
2022-09-28T19:37:40.082Z,98609.20
2022-09-28T19:42:44.510Z,98617.60
2022-09-28T19:47:49.870Z,98622.20
2022-09-28T19:52:54.015Z,98626.60
2022-09-28T19:58:02.294Z,98626.00
2022-09-28T20:03:06.535Z,98635.40
2022-09-28T20:08:14.843Z,98635.80
2022-09-28T20:13:19.738Z,98643.60
2022-09-28T20:18:23.826Z,98649.40
2022-09-28T20:23:27.704Z,98658.60
2022-09-28T20:28:33.404Z,98655.20
2022-09-28T20:33:37.814Z,98660.20
2022-09-28T20:38:42.657Z,98669.40
2022-09-28T20:43:48.165Z,98674.20
2022-09-28T20:48:52.381Z,98672.00
2022-09-28T20:54:01.454Z,98674.00
2022-09-28T20:59:08.465Z,98676.20
2022-09-28T21:04:13.246Z,98672.00
2022-09-28T21:09:17.274Z,98671.40
2022-09-28T21:14:21.815Z,98659.60
2022-09-28T21:19:25.959Z,98659.60
2022-09-28T21:24:29.885Z,98662.00
2022-09-28T21:29:33.703Z,98666.60
2022-09-28T21:34:37.728Z,98665.80
2022-09-28T21:39:41.554Z,98670.00
2022-09-28T21:44:45.134Z,98662.20
2022-09-28T21:49:49.093Z,98659.40
2022-09-28T21:54:53.037Z,98655.60
2022-09-28T21:59:56.955Z,98652.40
2022-09-28T22:05:00.573Z,98651.40
2022-09-28T22:10:04.614Z,98653.60
2022-09-28T22:15:09.514Z,98650.40
2022-09-28T22:20:13.382Z,98654.40
2022-09-28T22:25:18.018Z,98652.60
2022-09-28T22:30:22.834Z,98650.80
2022-09-28T22:35:27.006Z,98651.40
2022-09-28T22:40:31.184Z,98656.20
2022-09-28T22:45:34.958Z,98656.20
2022-09-28T22:50:39.682Z,98656.60
2022-09-28T22:55:43.316Z,98658.40
2022-09-28T23:00:47.143Z,98657.20
2022-09-28T23:05:56.394Z,98652.20
2022-09-28T23:11:00.216Z,98655.80
2022-09-28T23:16:08.815Z,98650.20
2022-09-28T23:21:20.132Z,98653.80
2022-09-28T23:26:28.104Z,98645.60
2022-09-28T23:31:33.677Z,98655.60
2022-09-28T23:36:37.608Z,98652.00
2022-09-28T23:41:41.366Z,98659.80
2022-09-28T23:46:45.091Z,98660.60
2022-09-28T23:51:48.843Z,98655.80
2022-09-28T23:56:52.864Z,98657.40
